createdAt,value
2023-02-24T00:02:01.673Z,6.91
2023-02-24T00:07:05.668Z,9.21
2023-02-24T00:12:13.707Z,10.49
2023-02-24T00:17:17.017Z,11.27
2023-02-24T00:22:20.537Z,11.77
2023-02-24T00:27:23.611Z,12.10
2023-02-24T00:32:26.944Z,11.43
2023-02-24T00:37:30.861Z,9.24
2023-02-24T00:42:33.971Z,7.80
2023-02-24T00:47:40.203Z,6.84
2023-02-24T00:52:43.467Z,7.14
2023-02-24T00:57:46.550Z,9.38
2023-02-24T01:02:49.879Z,10.64
2023-02-24T01:07:53.321Z,11.40
2023-02-24T01:12:56.397Z,11.92
2023-02-24T01:17:59.509Z,12.31
2023-02-24T01:23:03.736Z,11.74
2023-02-24T01:28:07.040Z,9.61
2023-02-24T01:33:20.206Z,8.18
2023-02-24T01:38:23.497Z,7.24
2023-02-24T01:43:26.752Z,7.49
2023-02-24T01:48:30.330Z,9.75
2023-02-24T01:53:33.438Z,11.02
2023-02-24T01:58:37.460Z,11.74
2023-02-24T02:03:43.146Z,12.12
2023-02-24T02:08:47.155Z,12.37
2023-02-24T02:13:53.919Z,11.77
2023-02-24T02:19:44.782Z,9.40
2023-02-24T02:24:57.200Z,7.66
2023-02-24T02:30:47.745Z,8.17
2023-02-24T02:36:26.952Z,10.11
2023-02-24T02:41:44.928Z,10.95
2023-02-24T02:47:07.070Z,11.49
2023-02-24T02:52:20.900Z,11.73
2023-02-24T02:57:30.076Z,11.34
2023-02-24T03:02:38.394Z,9.19
2023-02-24T03:07:47.750Z,7.83
2023-02-24T03:12:58.861Z,9.39
2023-02-24T03:18:12.409Z,10.88
2023-02-24T03:23:27.390Z,11.47
2023-02-24T03:28:39.282Z,11.87
2023-02-24T03:34:00.851Z,12.21
2023-02-24T03:39:05.963Z,12.29
2023-02-24T03:44:12.053Z,10.48
2023-02-24T03:49:17.028Z,8.42
2023-02-24T03:54:38.836Z,8.03
2023-02-24T04:00:17.003Z,9.88
2023-02-24T04:05:27.662Z,10.98
2023-02-24T04:10:52.869Z,11.44
2023-02-24T04:16:17.198Z,11.71
2023-02-24T04:21:23.406Z,12.03
2023-02-24T04:26:28.997Z,11.35
2023-02-24T04:31:34.223Z,9.47
2023-02-24T04:36:38.649Z,10.57
2023-02-24T04:41:43.599Z,11.52
2023-02-24T04:46:49.948Z,11.73
2023-02-24T04:51:53.532Z,11.96
2023-02-24T04:56:58.909Z,11.02
2023-02-24T05:02:02.469Z,8.82
2023-02-24T05:07:05.588Z,8.36
2023-02-24T05:12:09.812Z,9.97
2023-02-24T05:17:16.642Z,10.76
2023-02-24T05:22:19.712Z,11.31
2023-02-24T05:27:23.126Z,11.65
2023-02-24T05:32:26.414Z,11.93
2023-02-24T05:37:29.676Z,10.64
2023-02-24T05:42:35.406Z,9.43
2023-02-24T05:47:40.317Z,10.68
2023-02-24T05:52:46.022Z,11.37
2023-02-24T05:57:51.097Z,11.69
2023-02-24T06:02:54.233Z,12.09
2023-02-24T06:08:12.049Z,11.79
2023-02-24T06:13:15.147Z,9.48
2023-02-24T06:18:18.189Z,9.96
2023-02-24T06:23:21.384Z,11.03
2023-02-24T06:28:25.506Z,11.60
2023-02-24T06:33:28.797Z,12.08
2023-02-24T06:38:35.022Z,12.24
2023-02-24T06:43:41.269Z,10.46
2023-02-24T06:48:44.356Z,9.43
2023-02-24T06:53:47.394Z,10.81
2023-02-24T06:58:55.453Z,11.60
2023-02-24T07:04:08.280Z,11.98
2023-02-24T07:09:15.869Z,12.15
2023-02-24T07:14:22.442Z,11.58
2023-02-24T07:19:30.004Z,9.47
2023-02-24T07:24:37.272Z,9.13
2023-02-24T07:29:40.368Z,10.79
2023-02-24T07:34:44.447Z,11.66
2023-02-24T07:39:47.692Z,12.20
2023-02-24T07:44:50.996Z,12.49
2023-02-24T07:49:55.739Z,12.89
2023-02-24T07:54:58.836Z,12.21
2023-02-24T08:00:17.220Z,9.89
2023-02-24T08:05:21.372Z,9.22
2023-02-24T08:10:24.705Z,10.90
2023-02-24T08:15:34.509Z,11.93
2023-02-24T08:20:52.519Z,12.44
2023-02-24T08:25:56.184Z,11.20
2023-02-24T08:30:59.570Z,9.23
2023-02-24T08:36:04.154Z,9.63
2023-02-24T08:41:17.961Z,11.35
2023-02-24T08:46:33.082Z,12.04
2023-02-24T08:51:44.056Z,12.46
2023-02-24T08:56:56.475Z,12.73
2023-02-24T09:02:34.146Z,12.12
2023-02-24T09:07:42.040Z,9.80
2023-02-24T09:12:45.497Z,8.72
2023-02-24T09:17:50.414Z,10.11
2023-02-24T09:23:09.091Z,11.67
2023-02-24T09:28:19.064Z,12.52
2023-02-24T09:33:39.313Z,13.06
2023-02-24T09:39:03.475Z,12.39
2023-02-24T09:44:18.664Z,10.16
2023-02-24T09:49:40.225Z,10.81
2023-02-24T09:55:15.229Z,11.88
2023-02-24T10:00:26.225Z,12.35
2023-02-24T10:06:12.434Z,10.77
2023-02-24T10:11:17.110Z,10.87
2023-02-24T10:16:24.480Z,11.63
2023-02-24T10:22:00.638Z,10.44
2023-02-24T10:27:17.931Z,10.48
2023-02-24T10:32:43.919Z,11.28
2023-02-24T10:37:49.430Z,10.83
2023-02-24T10:43:11.069Z,9.52
2023-02-24T10:48:42.760Z,10.63
2023-02-24T10:54:21.982Z,11.49
2023-02-24T10:59:25.257Z,10.80
2023-02-24T11:05:04.565Z,9.11
2023-02-24T11:10:33.050Z,10.30
2023-02-24T11:16:06.190Z,10.92
2023-02-24T11:21:12.807Z,10.31
2023-02-24T11:26:23.262Z,9.16
2023-02-24T11:31:59.778Z,9.64
2023-02-24T11:37:14.737Z,10.23
2023-02-24T11:42:38.231Z,10.62
2023-02-24T11:47:53.188Z,10.50
2023-02-24T11:53:02.725Z,8.50
2023-02-24T11:58:32.414Z,9.21
2023-02-24T12:04:25.350Z,10.12
2023-02-24T12:09:54.982Z,8.46
2023-02-24T12:15:10.764Z,8.83
2023-02-24T12:20:50.958Z,10.17
2023-02-24T12:26:20.381Z,8.73
2023-02-24T12:31:53.634Z,7.95
2023-02-24T12:37:20.121Z,8.71
2023-02-24T12:42:38.599Z,7.22
2023-02-24T12:48:18.676Z,8.40
2023-02-24T12:53:52.797Z,9.00
2023-02-24T12:59:05.685Z,7.04
2023-02-24T13:04:11.600Z,6.28
2023-02-24T13:09:30.064Z,8.12
2023-02-24T13:14:37.489Z,7.85
2023-02-24T13:19:44.305Z,6.31
2023-02-24T13:25:09.298Z,5.60
2023-02-24T13:30:12.490Z,7.37
2023-02-24T13:35:15.613Z,8.14
2023-02-24T13:40:23.978Z,6.55
2023-02-24T13:45:33.673Z,5.47
2023-02-24T13:50:44.293Z,5.81
2023-02-24T13:56:10.016Z,7.31
2023-02-24T14:01:19.273Z,5.92
2023-02-24T14:06:27.803Z,5.53
2023-02-24T14:11:37.261Z,7.63
2023-02-24T14:16:41.596Z,7.36
2023-02-24T14:21:50.759Z,5.80
2023-02-24T14:26:58.643Z,5.23
2023-02-24T14:32:02.620Z,7.28
2023-02-24T14:37:08.273Z,9.05
2023-02-24T14:42:15.950Z,8.89
2023-02-24T14:47:23.564Z,6.85
2023-02-24T14:52:55.897Z,5.62
2023-02-24T14:58:18.031Z,5.30
2023-02-24T15:03:29.814Z,7.55
2023-02-24T15:08:46.412Z,7.29
2023-02-24T15:14:16.510Z,5.73
2023-02-24T15:19:38.019Z,4.85
2023-02-24T15:24:41.173Z,5.29
2023-02-24T15:29:58.370Z,7.67
2023-02-24T15:35:02.711Z,8.19
2023-02-24T15:40:24.261Z,6.50
2023-02-24T15:45:38.252Z,5.32
2023-02-24T15:50:41.442Z,5.11
2023-02-24T15:55:45.539Z,7.29
2023-02-24T16:00:52.813Z,8.70
2023-02-24T16:05:56.056Z,7.35
2023-02-24T16:11:00.697Z,5.77
2023-02-24T16:16:06.755Z,4.76
2023-02-24T16:21:09.944Z,5.72
2023-02-24T16:26:23.685Z,7.75
2023-02-24T16:31:28.329Z,7.01
2023-02-24T16:36:31.793Z,5.43
2023-02-24T16:41:35.009Z,4.53
2023-02-24T16:46:41.350Z,4.64
2023-02-24T16:51:44.701Z,7.08
2023-02-24T16:56:48.418Z,8.13
2023-02-24T17:01:51.526Z,6.50
2023-02-24T17:06:54.838Z,5.14
2023-02-24T17:11:58.158Z,4.34
2023-02-24T17:17:01.406Z,3.86
2023-02-24T17:22:05.612Z,3.50
2023-02-24T17:27:11.155Z,4.14
2023-02-24T17:32:14.591Z,6.77
2023-02-24T17:37:18.607Z,8.35
2023-02-24T17:42:21.704Z,8.25
2023-02-24T17:47:25.526Z,6.29
2023-02-24T17:52:31.383Z,4.99
2023-02-24T17:57:35.617Z,4.19
2023-02-24T18:09:17.904Z,8.08
2023-02-24T18:16:22.557Z,7.40
2023-02-24T18:21:26.475Z,5.67
2023-02-24T18:26:34.696Z,4.61
2023-02-24T18:31:44.783Z,3.91
2023-02-24T18:37:04.286Z,3.45
2023-02-24T18:42:18.337Z,5.12
2023-02-24T18:47:23.211Z,7.36
2023-02-24T18:52:28.141Z,8.59
2023-02-24T18:57:31.446Z,8.32
2023-02-24T19:02:34.859Z,6.25
2023-02-24T19:07:38.475Z,4.91
2023-02-24T19:12:41.679Z,4.10
2023-02-24T19:17:46.429Z,3.56
2023-02-24T19:22:51.619Z,3.23
2023-02-24T19:27:55.308Z,4.22
2023-02-24T19:32:58.646Z,7.35
2023-02-24T19:38:02.228Z,8.56
2023-02-24T19:43:05.534Z,8.40
2023-02-24T19:48:09.872Z,6.35
2023-02-24T19:53:13.180Z,5.09
2023-02-24T19:58:16.393Z,4.31
2023-02-24T20:03:20.725Z,3.79
2023-02-24T20:08:23.859Z,3.40
2023-02-24T20:13:27.345Z,4.03
2023-02-24T20:18:30.455Z,6.67
2023-02-24T20:23:34.348Z,8.26
2023-02-24T20:28:37.790Z,8.59
2023-02-24T20:33:43.839Z,6.61
2023-02-24T20:38:47.394Z,5.20
2023-02-24T20:43:51.233Z,4.32
2023-02-24T20:49:01.338Z,3.75
2023-02-24T20:54:07.008Z,4.37
2023-02-24T20:59:17.229Z,6.92
2023-02-24T21:04:22.035Z,8.43
2023-02-24T21:09:25.185Z,9.28
2023-02-24T21:14:28.379Z,8.89
2023-02-24T21:19:31.694Z,6.77
2023-02-24T21:24:35.117Z,5.41
2023-02-24T21:29:38.411Z,4.55
2023-02-24T21:34:41.628Z,3.94
2023-02-24T21:39:44.928Z,4.44
2023-02-24T21:44:51.273Z,6.92
2023-02-24T21:49:55.337Z,8.39
2023-02-24T21:54:58.344Z,8.47
2023-02-24T22:00:02.290Z,6.49
2023-02-24T22:05:06.173Z,5.17
2023-02-24T22:10:15.345Z,4.34
2023-02-24T22:15:18.461Z,3.77
2023-02-24T22:20:21.756Z,4.74
2023-02-24T22:25:25.079Z,8.11
2023-02-24T22:30:28.432Z,10.08
2023-02-24T22:35:35.545Z,9.87
2023-02-24T22:40:39.622Z,7.36
2023-02-24T22:45:42.747Z,5.82
2023-02-24T22:50:46.449Z,4.88
2023-02-24T22:55:49.861Z,4.26
2023-02-24T23:00:54.963Z,3.87
2023-02-24T23:06:02.434Z,5.88
2023-02-24T23:11:27.953Z,8.15
2023-02-24T23:16:35.005Z,9.29
2023-02-24T23:21:42.506Z,9.00
2023-02-24T23:26:58.921Z,6.86
2023-02-24T23:32:02.622Z,5.47
2023-02-24T23:37:06.105Z,4.61
2023-02-24T23:42:10.345Z,4.03
2023-02-24T23:47:14.811Z,3.63
2023-02-24T23:52:18.624Z,4.49
2023-02-24T23:57:22.633Z,7.17
